Terminal Aerodrome Forecast
Issued by NWS

Home | Current Version | Previous Version | Text Only | Print | Product List | Glossary On
Versions: 1 2 3 4 5 6 7 8 9 10 11 12 13 14
880
FTUS45 KRIW 101721
TAFLND
TAF
KLND 101721Z 1018/1118 VRB06KT P6SM BKN080
     FM102100 26011KT P6SM BKN070
     FM110300 29010KT P6SM BKN060
     FM110800 28008KT P6SM VCSH BKN050
     FM111400 VRB06KT P6SM SCT080=

USA.gov is the U.S. government's official web portal to all federal, state and local government web resources and services.